Time;durP1;ratioP1;P1;durP2;ratioP2;P2;SDS_P1;SDS_P2;PMS_P1;PMS_P2;Temp;Humidity;BMP_temperature;BMP_pressure;BME280_temperature;BME280_humidity;BME280_pressure;Samples;Min_cycle;Max_cycle;Signal;HPM_P1;HPM_P2
2021/04/22 00:01:04;;;;;;;2.42;1.70;;;;;;;;;;5073838;28;20734;-44
2021/04/22 00:03:30;;;;;;;2.28;1.63;;;;;;;;;;5066100;28;20211;-44
2021/04/22 00:05:56;;;;;;;3.58;1.50;;;;;;;;;;5065048;28;20264;-44
2021/04/22 00:08:23;;;;;;;1.73;1.55;;;;;;;;;;5056518;28;20531;-44
2021/04/22 00:10:50;;;;;;;2.20;1.50;;;;;;;;;;5070524;28;20182;-44
2021/04/22 00:13:18;;;;;;;2.95;1.90;;;;;;;;;;5066158;28;20189;-44
2021/04/22 00:15:45;;;;;;;2.95;1.80;;;;;;;;;;5057691;28;20201;-44
2021/04/22 00:18:11;;;;;;;2.17;1.73;;;;;;;;;;5065307;28;20202;-44
2021/04/22 00:20:37;;;;;;;1.65;1.50;;;;;;;;;;5060563;28;20253;-44
2021/04/22 00:23:04;;;;;;;2.13;1.40;;;;;;;;;;5071207;28;20187;-44
2021/04/22 00:25:30;;;;;;;2.55;1.70;;;;;;;;;;5076065;28;20432;-44
2021/04/22 00:27:58;;;;;;;1.85;1.75;;;;;;;;;;5075115;28;20258;-44
2021/04/22 00:30:24;;;;;;;2.83;1.73;;;;;;;;;;5075737;28;20170;-44
2021/04/22 00:32:50;;;;;;;1.70;1.55;;;;;;;;;;5070703;28;20434;-44
2021/04/22 00:35:16;;;;;;;1.80;1.40;;;;;;;;;;5062776;28;20235;-44
2021/04/22 00:37:42;;;;;;;1.80;1.45;;;;;;;;;;5075733;28;20174;-44
2021/04/22 00:40:09;;;;;;;3.80;1.50;;;;;;;;;;5075620;28;20200;-44
2021/04/22 00:42:35;;;;;;;2.35;1.50;;;;;;;;;;5067726;28;20178;-44
2021/04/22 00:45:01;;;;;;;2.88;1.73;;;;;;;;;;5074505;28;20185;-44
2021/04/22 00:47:28;;;;;;;2.47;1.65;;;;;;;;;;5059854;28;20174;-44
2021/04/22 00:49:54;;;;;;;1.50;1.27;;;;;;;;;;5057805;28;20258;-44
2021/04/22 00:52:20;;;;;;;1.80;1.35;;;;;;;;;;5054942;28;20254;-44
2021/04/22 00:54:46;;;;;;;2.88;1.52;;;;;;;;;;5055426;28;20178;-44
2021/04/22 00:57:12;;;;;;;1.83;1.50;;;;;;;;;;5056369;28;20190;-44
2021/04/22 00:59:38;;;;;;;1.50;1.40;;;;;;;;;;5072330;28;20182;-44
2021/04/22 01:02:21;;;;;;;1.42;1.33;;;;;;;;;;5066019;28;20206;-44
2021/04/22 01:04:48;;;;;;;2.33;1.52;;;;;;;;;;5069427;28;20177;-44
2021/04/22 01:07:14;;;;;;;2.45;1.38;;;;;;;;;;5075294;28;20560;-44
2021/04/22 01:09:41;;;;;;;2.00;1.52;;;;;;;;;;5064856;28;20213;-44
2021/04/22 01:12:07;;;;;;;1.23;1.13;;;;;;;;;;5063206;28;20187;-44
2021/04/22 01:14:33;;;;;;;1.55;1.35;;;;;;;;;;5057448;28;20225;-44
2021/04/22 01:16:59;;;;;;;2.92;1.20;;;;;;;;;;5055953;28;20201;-44
2021/04/22 01:19:25;;;;;;;3.05;1.20;;;;;;;;;;5066073;28;20186;-44
2021/04/22 01:21:52;;;;;;;2.08;1.52;;;;;;;;;;5069963;28;20178;-44
2021/04/22 01:24:18;;;;;;;2.67;1.65;;;;;;;;;;5072975;28;20175;-44
2021/04/22 01:26:44;;;;;;;1.55;1.38;;;;;;;;;;5055155;28;20531;-44
2021/04/22 01:29:11;;;;;;;3.03;1.40;;;;;;;;;;5055876;28;20175;-44
2021/04/22 01:31:37;;;;;;;2.22;1.23;;;;;;;;;;5058787;28;20218;-44
2021/04/22 01:34:04;;;;;;;1.35;1.20;;;;;;;;;;5066935;28;20210;-44
2021/04/22 01:36:31;;;;;;;1.23;1.08;;;;;;;;;;5074155;28;20190;-44
2021/04/22 01:38:58;;;;;;;1.55;1.40;;;;;;;;;;5074823;28;20178;-45
2021/04/22 01:41:24;;;;;;;1.17;1.08;;;;;;;;;;5067021;28;20203;-44
2021/04/22 01:43:50;;;;;;;1.52;1.00;;;;;;;;;;5061539;28;20441;-44
2021/04/22 01:46:16;;;;;;;2.00;1.45;;;;;;;;;;5072771;28;20256;-44
2021/04/22 01:48:42;;;;;;;1.55;1.13;;;;;;;;;;5069843;28;20175;-44
2021/04/22 01:51:08;;;;;;;1.42;1.17;;;;;;;;;;5068172;28;20434;-44
2021/04/22 01:53:34;;;;;;;1.40;1.27;;;;;;;;;;5074623;28;20167;-44
2021/04/22 01:56:00;;;;;;;1.95;1.20;;;;;;;;;;5074617;28;20190;-44
2021/04/22 01:58:26;;;;;;;2.05;1.30;;;;;;;;;;5069072;28;20565;-44
2021/04/22 02:00:54;;;;;;;2.08;1.33;;;;;;;;;;5061155;28;20244;-44
2021/04/22 02:03:21;;;;;;;1.63;1.30;;;;;;;;;;5071095;28;20566;-44
2021/04/22 02:05:47;;;;;;;2.05;1.20;;;;;;;;;;5073936;28;20210;-44
2021/04/22 02:08:13;;;;;;;1.40;1.02;;;;;;;;;;5074639;28;20428;-44
2021/04/22 02:10:39;;;;;;;2.17;1.30;;;;;;;;;;5071506;28;20620;-44
2021/04/22 02:13:06;;;;;;;1.00;0.90;;;;;;;;;;5070844;28;20171;-44
2021/04/22 02:15:32;;;;;;;2.20;1.10;;;;;;;;;;5057553;28;20447;-44
2021/04/22 02:17:59;;;;;;;1.40;1.20;;;;;;;;;;5062218;28;20205;-44
2021/04/22 02:20:25;;;;;;;2.55;1.45;;;;;;;;;;5065874;28;20485;-44
2021/04/22 02:22:51;;;;;;;2.10;1.17;;;;;;;;;;5054077;28;20175;-44
2021/04/22 02:25:19;;;;;;;1.40;1.10;;;;;;;;;;5070610;28;20174;-44
2021/04/22 02:27:46;;;;;;;2.55;1.13;;;;;;;;;;5060198;28;20179;-44
2021/04/22 02:30:20;;;;;;;2.20;1.30;;;;;;;;;;5056563;28;20269;-44
2021/04/22 02:32:47;;;;;;;2.28;1.30;;;;;;;;;;5069672;28;20178;-44
2021/04/22 02:35:14;;;;;;;0.90;0.90;;;;;;;;;;5065485;28;20193;-44
2021/04/22 02:37:41;;;;;;;1.80;1.10;;;;;;;;;;5069185;28;20187;-44
2021/04/22 02:40:08;;;;;;;1.77;1.10;;;;;;;;;;5054130;28;20341;-44
2021/04/22 02:42:34;;;;;;;1.27;1.17;;;;;;;;;;5065115;28;20583;-44
2021/04/22 02:45:01;;;;;;;1.30;1.02;;;;;;;;;;5067488;28;20260;-44
2021/04/22 02:47:27;;;;;;;1.70;1.10;;;;;;;;;;5056115;28;20175;-44
2021/04/22 02:49:53;;;;;;;1.27;1.00;;;;;;;;;;5059630;28;20458;-44
2021/04/22 02:52:19;;;;;;;2.03;1.20;;;;;;;;;;5072870;28;20273;-44
2021/04/22 02:54:45;;;;;;;2.30;1.27;;;;;;;;;;5074152;28;20170;-44
2021/04/22 02:57:13;;;;;;;1.23;0.90;;;;;;;;;;5061140;28;20554;-44
2021/04/22 02:59:39;;;;;;;2.25;1.15;;;;;;;;;;5062857;28;20195;-44
2021/04/22 03:02:05;;;;;;;1.85;1.15;;;;;;;;;;5071927;28;20535;-44
2021/04/22 03:04:31;;;;;;;1.42;1.08;;;;;;;;;;5066213;28;20182;-44
2021/04/22 03:06:56;;;;;;;1.73;1.10;;;;;;;;;;5077538;28;20209;-44
2021/04/22 03:09:22;;;;;;;1.85;1.00;;;;;;;;;;5067094;28;20171;-44
2021/04/22 03:11:48;;;;;;;1.75;0.80;;;;;;;;;;5061107;28;20187;-44
2021/04/22 03:14:14;;;;;;;1.10;0.90;;;;;;;;;;5068832;28;20174;-44
2021/04/22 03:16:41;;;;;;;2.05;1.05;;;;;;;;;;5073190;28;20553;-44
2021/04/22 03:19:07;;;;;;;1.70;0.98;;;;;;;;;;5071463;28;20585;-44
2021/04/22 03:21:33;;;;;;;1.38;1.10;;;;;;;;;;5065228;28;20210;-44
2021/04/22 03:23:59;;;;;;;1.75;1.13;;;;;;;;;;5062945;28;20245;-44
2021/04/22 03:26:25;;;;;;;1.60;1.10;;;;;;;;;;5077175;28;20608;-44
2021/04/22 03:28:51;;;;;;;2.03;1.00;;;;;;;;;;5062296;28;20338;-44
2021/04/22 03:31:17;;;;;;;2.58;1.35;;;;;;;;;;5060926;28;20257;-44
2021/04/22 03:33:43;;;;;;;2.22;1.20;;;;;;;;;;5065100;28;20273;-44
2021/04/22 03:36:09;;;;;;;2.03;1.15;;;;;;;;;;5075874;28;20210;-43
2021/04/22 03:38:35;;;;;;;1.38;1.17;;;;;;;;;;5065864;28;20210;-43
2021/04/22 03:41:01;;;;;;;2.00;1.00;;;;;;;;;;5056943;28;20564;-43
2021/04/22 03:43:27;;;;;;;1.98;1.10;;;;;;;;;;5056696;28;20458;-43
2021/04/22 03:45:53;;;;;;;2.72;1.35;;;;;;;;;;5056240;28;20179;-43
2021/04/22 03:48:19;;;;;;;2.58;1.35;;;;;;;;;;5067967;28;20209;-44
2021/04/22 03:50:45;;;;;;;1.25;1.00;;;;;;;;;;5067716;28;20179;-43
2021/04/22 03:53:11;;;;;;;2.20;1.10;;;;;;;;;;5062462;28;20257;-44
2021/04/22 03:55:37;;;;;;;2.78;1.20;;;;;;;;;;5065362;28;20187;-44
2021/04/22 03:58:03;;;;;;;1.52;0.98;;;;;;;;;;5076501;28;20178;-44
2021/04/22 04:00:29;;;;;;;2.15;1.17;;;;;;;;;;5062550;28;20202;-44
2021/04/22 04:02:55;;;;;;;4.43;1.40;;;;;;;;;;5071062;28;20183;-44
2021/04/22 04:05:21;;;;;;;3.20;1.20;;;;;;;;;;5065254;28;20178;-44
2021/04/22 04:07:47;;;;;;;1.20;0.90;;;;;;;;;;5073514;28;20178;-44
2021/04/22 04:10:13;;;;;;;3.22;1.40;;;;;;;;;;5074946;28;20170;-44
2021/04/22 04:12:40;;;;;;;2.30;1.20;;;;;;;;;;5075360;28;20209;-44
2021/04/22 04:15:07;;;;;;;1.83;1.17;;;;;;;;;;5056939;28;20241;-44
2021/04/22 04:17:33;;;;;;;1.85;1.20;;;;;;;;;;5056165;28;20448;-44
2021/04/22 04:20:00;;;;;;;1.70;1.27;;;;;;;;;;5057855;28;20234;-44
2021/04/22 04:22:26;;;;;;;2.08;1.15;;;;;;;;;;5055190;28;20241;-44
2021/04/22 04:24:52;;;;;;;3.58;1.48;;;;;;;;;;5055758;28;20597;-44
2021/04/22 04:27:18;;;;;;;1.63;1.25;;;;;;;;;;5055761;28;20168;-44
2021/04/22 04:29:44;;;;;;;1.52;1.20;;;;;;;;;;5066352;28;20186;-44
2021/04/22 04:32:10;;;;;;;1.95;1.00;;;;;;;;;;5060155;28;20197;-44
2021/04/22 04:34:36;;;;;;;2.42;1.10;;;;;;;;;;5066408;28;20557;-44
2021/04/22 04:37:03;;;;;;;2.00;1.13;;;;;;;;;;5056269;28;20218;-44
2021/04/22 04:39:29;;;;;;;2.13;1.30;;;;;;;;;;5055557;28;20216;-44
2021/04/22 04:41:55;;;;;;;2.03;0.95;;;;;;;;;;5067032;28;20568;-44
2021/04/22 04:44:21;;;;;;;2.78;1.38;;;;;;;;;;5060527;28;20179;-44
2021/04/22 04:46:47;;;;;;;2.78;1.42;;;;;;;;;;5054993;28;20213;-44
2021/04/22 04:49:13;;;;;;;1.55;1.00;;;;;;;;;;5059956;28;20574;-44
2021/04/22 04:51:39;;;;;;;1.08;0.93;;;;;;;;;;5073272;28;20178;-44
2021/04/22 04:54:05;;;;;;;2.30;1.50;;;;;;;;;;5066443;28;20198;-44
2021/04/22 04:56:31;;;;;;;2.53;1.20;;;;;;;;;;5054939;28;20600;-44
2021/04/22 04:58:58;;;;;;;1.90;1.23;;;;;;;;;;5057783;28;20266;-44
2021/04/22 05:01:24;;;;;;;1.88;1.13;;;;;;;;;;5059201;28;20218;-44
2021/04/22 05:03:50;;;;;;;2.78;1.40;;;;;;;;;;5069678;28;20204;-44
2021/04/22 05:06:16;;;;;;;2.05;1.05;;;;;;;;;;5074924;28;20178;-44
2021/04/22 05:08:42;;;;;;;2.97;1.10;;;;;;;;;;5073944;28;20446;-44
2021/04/22 05:11:08;;;;;;;2.72;1.15;;;;;;;;;;5073427;28;20549;-44
2021/04/22 05:13:34;;;;;;;2.95;1.30;;;;;;;;;;5074109;28;20174;-44
2021/04/22 05:16:00;;;;;;;1.80;1.13;;;;;;;;;;5070774;28;20477;-44
2021/04/22 05:18:27;;;;;;;2.20;1.00;;;;;;;;;;5070545;28;20201;-44
2021/04/22 05:20:53;;;;;;;2.60;1.33;;;;;;;;;;5073526;28;20527;-44
2021/04/22 05:23:19;;;;;;;3.22;1.35;;;;;;;;;;5074900;28;20202;-44
2021/04/22 05:25:46;;;;;;;3.30;1.45;;;;;;;;;;5070768;28;20179;-44
2021/04/22 05:28:13;;;;;;;2.25;0.98;;;;;;;;;;5054856;28;20179;-44
2021/04/22 05:30:41;;;;;;;2.15;1.20;;;;;;;;;;5067771;28;20188;-44
2021/04/22 05:33:07;;;;;;;3.05;1.20;;;;;;;;;;5058376;28;20182;-44
2021/04/22 05:35:34;;;;;;;3.25;1.13;;;;;;;;;;5068411;28;20423;-44
2021/04/22 05:37:59;;;;;;;1.67;1.15;;;;;;;;;;5073595;28;20358;-44
2021/04/22 05:40:26;;;;;;;3.90;1.42;;;;;;;;;;5071923;28;20462;-44
2021/04/22 05:42:51;;;;;;;2.50;1.30;;;;;;;;;;5056085;28;20180;-44
2021/04/22 05:45:18;;;;;;;3.58;1.30;;;;;;;;;;5067028;28;20182;-44
2021/04/22 05:47:45;;;;;;;4.82;1.38;;;;;;;;;;5057109;28;20257;-44
2021/04/22 05:50:11;;;;;;;3.83;1.60;;;;;;;;;;5071917;28;20270;-44
2021/04/22 05:52:37;;;;;;;3.13;1.10;;;;;;;;;;5073361;28;20564;-44
2021/04/22 05:55:04;;;;;;;1.42;1.13;;;;;;;;;;5074226;28;20177;-44
2021/04/22 05:57:30;;;;;;;2.53;1.00;;;;;;;;;;5067906;28;20214;-44
2021/04/22 05:59:56;;;;;;;3.05;1.45;;;;;;;;;;5065947;28;20239;-42
2021/04/22 06:02:23;;;;;;;2.63;1.38;;;;;;;;;;5071218;28;20202;-41
2021/04/22 06:04:49;;;;;;;4.82;1.80;;;;;;;;;;5062468;28;20179;-43
2021/04/22 06:07:15;;;;;;;4.55;1.77;;;;;;;;;;5074166;28;20162;-41
2021/04/22 06:09:41;;;;;;;6.93;2.15;;;;;;;;;;5074143;28;20465;-44
2021/04/22 06:12:07;;;;;;;10.18;2.00;;;;;;;;;;5074037;28;20231;-42
2021/04/22 06:14:33;;;;;;;6.32;1.95;;;;;;;;;;5071963;28;20193;-45
2021/04/22 06:16:59;;;;;;;16.70;2.38;;;;;;;;;;5057072;28;20175;-42
2021/04/22 06:19:26;;;;;;;5.97;1.77;;;;;;;;;;5057548;28;20188;-43
2021/04/22 06:21:52;;;;;;;5.53;1.98;;;;;;;;;;5073711;28;20538;-41
2021/04/22 06:24:18;;;;;;;6.25;2.17;;;;;;;;;;5073987;28;20257;-40
2021/04/22 06:28:15;;;;;;;10.60;2.80;;;;;;;;;;5090953;27;20597;-43
2021/04/22 06:30:41;;;;;;;5.72;1.92;;;;;;;;;;5080901;28;20193;-42
2021/04/22 06:33:07;;;;;;;5.05;1.75;;;;;;;;;;5081706;28;20223;-41
2021/04/22 06:35:33;;;;;;;10.02;2.20;;;;;;;;;;5086788;28;20476;-42
2021/04/22 06:37:59;;;;;;;5.95;2.55;;;;;;;;;;5071603;28;20520;-43
2021/04/22 06:40:25;;;;;;;11.05;2.55;;;;;;;;;;5071718;28;20209;-42
2021/04/22 06:42:52;;;;;;;6.93;2.13;;;;;;;;;;5070958;28;20213;-42
2021/04/22 06:45:18;;;;;;;8.18;2.25;;;;;;;;;;5083696;28;20560;-43
2021/04/22 06:47:44;;;;;;;6.47;2.42;;;;;;;;;;5087375;28;20588;-40
2021/04/22 06:50:12;;;;;;;5.05;1.92;;;;;;;;;;5083450;28;20224;-41
2021/04/22 06:52:38;;;;;;;8.35;2.05;;;;;;;;;;5075178;28;20192;-44
2021/04/22 06:55:06;;;;;;;4.97;1.90;;;;;;;;;;5088767;28;20211;-42
2021/04/22 06:57:32;;;;;;;5.65;1.80;;;;;;;;;;5072151;28;21610;-42
2021/04/22 06:59:58;;;;;;;5.00;1.65;;;;;;;;;;5090242;28;20206;-42
2021/04/22 07:02:24;;;;;;;10.43;2.08;;;;;;;;;;5090912;28;20188;-40
2021/04/22 07:04:50;;;;;;;11.00;2.55;;;;;;;;;;5081883;28;20173;-43
2021/04/22 07:07:16;;;;;;;12.40;2.30;;;;;;;;;;5089725;28;20198;-41
2021/04/22 07:09:42;;;;;;;5.32;1.77;;;;;;;;;;5089883;28;20223;-41
2021/04/22 07:12:08;;;;;;;5.10;1.95;;;;;;;;;;5086042;28;20548;-44
2021/04/22 07:14:34;;;;;;;6.60;1.90;;;;;;;;;;5071122;28;20535;-43
2021/04/22 07:17:00;;;;;;;3.45;1.80;;;;;;;;;;5071016;28;20680;-43
2021/04/22 07:19:27;;;;;;;7.75;2.63;;;;;;;;;;5084879;28;20297;-40
2021/04/22 07:21:54;;;;;;;6.85;1.80;;;;;;;;;;5070397;28;20186;-40
2021/04/22 07:24:21;;;;;;;3.67;1.80;;;;;;;;;;5071046;28;20173;-43
2021/04/22 07:26:47;;;;;;;4.72;1.90;;;;;;;;;;5070063;28;20321;-44
2021/04/22 07:29:13;;;;;;;5.38;1.90;;;;;;;;;;5070763;28;20249;-43
2021/04/22 07:31:39;;;;;;;4.30;1.92;;;;;;;;;;5069899;28;20171;-44
2021/04/22 07:34:05;;;;;;;6.50;2.20;;;;;;;;;;5070753;28;20190;-41
2021/04/22 07:36:31;;;;;;;7.25;2.13;;;;;;;;;;5069832;28;20174;-43
2021/04/22 07:38:57;;;;;;;5.22;1.90;;;;;;;;;;5060536;28;20183;-40
2021/04/22 07:41:23;;;;;;;5.40;2.00;;;;;;;;;;5056507;28;20179;-42
2021/04/22 07:43:49;;;;;;;2.35;1.50;;;;;;;;;;5056909;28;20213;-44
2021/04/22 07:46:15;;;;;;;4.30;2.47;;;;;;;;;;5057219;28;20230;-41
2021/04/22 07:48:41;;;;;;;3.63;1.70;;;;;;;;;;5057278;28;20244;-41
2021/04/22 07:51:07;;;;;;;5.03;1.67;;;;;;;;;;5056657;28;20183;-41
2021/04/22 07:53:33;;;;;;;4.43;1.80;;;;;;;;;;5056667;28;20180;-39
2021/04/22 07:56:00;;;;;;;5.10;1.85;;;;;;;;;;5056752;28;20217;-42
2021/04/22 07:58:26;;;;;;;5.55;2.00;;;;;;;;;;5056836;28;20179;-41
2021/04/22 08:00:52;;;;;;;3.50;1.90;;;;;;;;;;5055978;28;20175;-41
2021/04/22 08:03:18;;;;;;;5.72;2.00;;;;;;;;;;5056693;28;20535;-44
2021/04/22 08:05:45;;;;;;;7.25;1.90;;;;;;;;;;5056496;28;20183;-41
2021/04/22 08:08:12;;;;;;;5.68;2.00;;;;;;;;;;5055835;28;20256;-40
2021/04/22 08:10:40;;;;;;;8.88;2.55;;;;;;;;;;5055621;28;20211;-43
2021/04/22 08:13:06;;;;;;;4.57;2.10;;;;;;;;;;5055789;28;20171;-44
2021/04/22 08:15:33;;;;;;;4.13;2.00;;;;;;;;;;5056411;28;20187;-43
2021/04/22 08:17:59;;;;;;;5.50;1.83;;;;;;;;;;5056316;28;20528;-43
2021/04/22 08:21:54;;;;;;;6.03;2.53;;;;;;;;;;5167520;27;20486;-40
2021/04/22 08:24:20;;;;;;;8.48;2.33;;;;;;;;;;5153601;27;20172;-43
2021/04/22 08:26:48;;;;;;;9.05;2.58;;;;;;;;;;5153086;27;20175;-39
2021/04/22 08:29:14;;;;;;;4.30;1.77;;;;;;;;;;5152785;27;20171;-42
2021/04/22 08:31:40;;;;;;;8.70;1.85;;;;;;;;;;5152548;27;20183;-43
2021/04/22 08:34:09;;;;;;;5.93;1.92;;;;;;;;;;5153222;27;20186;-43
2021/04/22 08:36:36;;;;;;;5.28;1.70;;;;;;;;;;5153312;27;20530;-43
2021/04/22 08:39:04;;;;;;;3.63;1.70;;;;;;;;;;5152775;27;20176;-43
2021/04/22 08:41:30;;;;;;;5.95;2.10;;;;;;;;;;5150632;27;20195;-43
2021/04/22 08:43:56;;;;;;;7.72;2.15;;;;;;;;;;5151595;27;20183;-44
2021/04/22 08:46:23;;;;;;;4.45;1.70;;;;;;;;;;5152554;27;20168;-44
2021/04/22 08:48:50;;;;;;;6.22;1.92;;;;;;;;;;5151834;27;20175;-44
2021/04/22 08:51:16;;;;;;;10.65;2.67;;;;;;;;;;5151805;27;20571;-44
2021/04/22 08:53:44;;;;;;;7.43;2.17;;;;;;;;;;5151752;27;20547;-44
2021/04/22 08:56:11;;;;;;;6.63;2.20;;;;;;;;;;5149935;27;20180;-44
2021/04/22 08:58:37;;;;;;;5.65;2.13;;;;;;;;;;5131766;28;20183;-44
2021/04/22 09:01:09;;;;;;;6.55;2.15;;;;;;;;;;5130189;28;20531;-44
2021/04/22 09:03:36;;;;;;;6.60;2.42;;;;;;;;;;5126402;28;20504;-44
2021/04/22 09:06:03;;;;;;;5.97;1.98;;;;;;;;;;5093812;28;20204;-44
2021/04/22 09:08:55;;;;;;;8.95;2.08;;;;;;;;;;5123056;28;20183;-44
2021/04/22 09:11:26;;;;;;;6.93;1.63;;;;;;;;;;5107754;28;20267;-44
2021/04/22 09:13:52;;;;;;;8.48;2.10;;;;;;;;;;5131608;28;20181;-44
2021/04/22 09:16:20;;;;;;;7.93;1.77;;;;;;;;;;5125874;28;20235;-44
2021/04/22 09:18:50;;;;;;;5.40;1.98;;;;;;;;;;5119430;28;20184;-44
2021/04/22 09:21:18;;;;;;;6.28;2.40;;;;;;;;;;5130126;28;20223;-44
2021/04/22 09:23:54;;;;;;;4.60;2.22;;;;;;;;;;5131249;28;20183;-45
2021/04/22 09:26:22;;;;;;;6.45;2.20;;;;;;;;;;5113576;28;20180;-46
2021/04/22 09:28:48;;;;;;;5.03;2.05;;;;;;;;;;5131757;28;20179;-46
2021/04/22 09:31:25;;;;;;;12.05;2.53;;;;;;;;;;5128520;28;20176;-45
2021/04/22 09:34:09;;;;;;;8.85;2.72;;;;;;;;;;5109530;28;20206;-46
2021/04/22 09:36:42;;;;;;;7.55;2.97;;;;;;;;;;5117834;28;20184;-45
2021/04/22 09:39:09;;;;;;;8.60;2.63;;;;;;;;;;5117832;28;20260;-46
2021/04/22 09:41:35;;;;;;;7.93;2.85;;;;;;;;;;5116676;28;20238;-47
2021/04/22 09:44:04;;;;;;;5.40;2.67;;;;;;;;;;5117299;28;20230;-44
2021/04/22 09:46:30;;;;;;;5.50;2.40;;;;;;;;;;5099113;28;20169;-44
2021/04/22 09:48:58;;;;;;;5.40;2.20;;;;;;;;;;5116308;28;20177;-44
2021/04/22 09:51:32;;;;;;;6.40;2.45;;;;;;;;;;5098313;28;20561;-44
2021/04/22 09:54:08;;;;;;;5.07;2.50;;;;;;;;;;5106879;28;20184;-43
2021/04/22 09:56:43;;;;;;;7.20;2.55;;;;;;;;;;5116159;28;20200;-40
2021/04/22 09:59:10;;;;;;;7.80;2.53;;;;;;;;;;5115845;28;20184;-43
2021/04/22 10:01:36;;;;;;;10.82;2.70;;;;;;;;;;5114917;28;20196;-43
2021/04/22 10:04:02;;;;;;;8.63;2.72;;;;;;;;;;5117015;28;20181;-41
2021/04/22 10:06:38;;;;;;;6.00;2.60;;;;;;;;;;5097937;28;20204;-41
2021/04/22 10:09:05;;;;;;;5.97;2.20;;;;;;;;;;5116826;28;20172;-39
2021/04/22 10:11:40;;;;;;;6.70;2.33;;;;;;;;;;5115949;28;20173;-39
2021/04/22 10:14:06;;;;;;;12.02;3.67;;;;;;;;;;5095767;28;20185;-40
2021/04/22 10:16:34;;;;;;;6.72;2.60;;;;;;;;;;5116153;28;20252;-42
2021/04/22 10:19:00;;;;;;;9.77;3.53;;;;;;;;;;5110608;28;20216;-42
2021/04/22 10:21:28;;;;;;;10.80;3.92;;;;;;;;;;5116003;28;20676;-42
2021/04/22 10:24:03;;;;;;;6.88;3.10;;;;;;;;;;5115259;28;20811;-42
2021/04/22 10:26:29;;;;;;;9.27;4.18;;;;;;;;;;5116535;28;20169;-42
2021/04/22 10:28:55;;;;;;;10.57;4.63;;;;;;;;;;5116738;28;20179;-42
2021/04/22 10:31:25;;;;;;;8.27;4.45;;;;;;;;;;5115717;28;20588;-42
2021/04/22 10:33:52;;;;;;;11.25;4.80;;;;;;;;;;5098692;28;20185;-43
2021/04/22 10:36:20;;;;;;;10.30;5.90;;;;;;;;;;5116158;28;20248;-40
2021/04/22 10:38:47;;;;;;;9.10;5.85;;;;;;;;;;5116780;28;20166;-40
2021/04/22 10:41:13;;;;;;;13.00;7.47;;;;;;;;;;5097414;28;20206;-40
2021/04/22 10:43:40;;;;;;;14.05;9.18;;;;;;;;;;5113607;28;20938;-40
2021/04/22 10:46:06;;;;;;;14.55;8.93;;;;;;;;;;5098080;28;20217;-40
2021/04/22 10:48:33;;;;;;;12.95;8.02;;;;;;;;;;5115850;28;20567;-40
2021/04/22 10:50:59;;;;;;;12.20;7.82;;;;;;;;;;5115271;28;20196;-40
2021/04/22 10:53:25;;;;;;;14.07;6.88;;;;;;;;;;5115363;28;20181;-40
2021/04/22 10:55:53;;;;;;;13.65;7.88;;;;;;;;;;5114512;28;20196;-40
2021/04/22 10:58:24;;;;;;;13.20;7.68;;;;;;;;;;5116195;28;20185;-40
2021/04/22 11:00:53;;;;;;;13.48;7.30;;;;;;;;;;5115054;28;20205;-40
2021/04/22 11:03:26;;;;;;;15.20;7.32;;;;;;;;;;5114391;28;20181;-40
2021/04/22 11:05:56;;;;;;;14.25;7.63;;;;;;;;;;5116100;28;20165;-40
2021/04/22 11:08:33;;;;;;;11.07;6.03;;;;;;;;;;5115277;28;20165;-40
2021/04/22 11:10:59;;;;;;;13.35;5.95;;;;;;;;;;5114649;28;20200;-40
2021/04/22 11:13:30;;;;;;;12.30;5.95;;;;;;;;;;5106789;28;20178;-40
2021/04/22 11:15:56;;;;;;;14.70;6.45;;;;;;;;;;5095313;28;20201;-40
2021/04/22 11:18:32;;;;;;;16.95;7.03;;;;;;;;;;5095716;28;20170;-40
2021/04/22 11:20:58;;;;;;;13.10;5.95;;;;;;;;;;5095191;28;20213;-40
2021/04/22 11:23:24;;;;;;;15.68;6.40;;;;;;;;;;5107398;28;20182;-40
2021/04/22 11:25:55;;;;;;;16.02;6.40;;;;;;;;;;5103591;28;20176;-40
2021/04/22 11:28:31;;;;;;;15.90;6.93;;;;;;;;;;5114695;28;20189;-40
2021/04/22 11:31:07;;;;;;;13.85;6.43;;;;;;;;;;5113654;28;20223;-42
2021/04/22 11:33:33;;;;;;;9.85;5.53;;;;;;;;;;5114842;28;20180;-40
2021/04/22 11:36:09;;;;;;;13.55;5.68;;;;;;;;;;5115772;28;20241;-40
2021/04/22 11:38:35;;;;;;;14.05;4.90;;;;;;;;;;5114501;28;20168;-40
2021/04/22 11:41:05;;;;;;;11.80;4.93;;;;;;;;;;5095993;28;20246;-42
2021/04/22 11:43:31;;;;;;;10.82;5.18;;;;;;;;;;5100662;28;20252;-42
2021/04/22 11:45:59;;;;;;;11.05;4.07;;;;;;;;;;5115183;28;20453;-42
2021/04/22 11:48:36;;;;;;;15.18;5.20;;;;;;;;;;5107550;28;20222;-41
2021/04/22 11:51:02;;;;;;;10.63;4.28;;;;;;;;;;5110038;28;20268;-40
2021/04/22 11:53:36;;;;;;;12.40;4.05;;;;;;;;;;5115547;28;20239;-40
2021/04/22 11:56:04;;;;;;;10.77;4.38;;;;;;;;;;5113586;28;20188;-40
2021/04/22 11:58:30;;;;;;;10.85;4.22;;;;;;;;;;5114255;28;20169;-41
2021/04/22 12:01:04;;;;;;;13.60;4.05;;;;;;;;;;5113372;28;20204;-40
2021/04/22 12:03:31;;;;;;;8.52;4.07;;;;;;;;;;5113178;28;20164;-40
2021/04/22 12:05:59;;;;;;;12.55;4.03;;;;;;;;;;5114491;28;20226;-40
2021/04/22 12:08:35;;;;;;;9.23;3.22;;;;;;;;;;5115149;28;20248;-40
2021/04/22 12:11:02;;;;;;;9.10;3.42;;;;;;;;;;5114962;28;20165;-40
2021/04/22 12:13:30;;;;;;;10.98;3.67;;;;;;;;;;5115489;28;20277;-40
2021/04/22 12:15:57;;;;;;;7.93;3.20;;;;;;;;;;5115464;28;20188;-40
2021/04/22 12:18:25;;;;;;;7.50;2.97;;;;;;;;;;5115187;28;20177;-40
2021/04/22 12:20:52;;;;;;;6.95;3.08;;;;;;;;;;5113089;28;20273;-40
2021/04/22 12:23:31;;;;;;;5.85;2.95;;;;;;;;;;5115487;28;20193;-40
2021/04/22 12:25:57;;;;;;;6.28;2.58;;;;;;;;;;5115436;28;20169;-40
2021/04/22 12:28:23;;;;;;;6.05;2.15;;;;;;;;;;5109546;28;20488;-40
2021/04/22 12:30:50;;;;;;;9.15;3.17;;;;;;;;;;5094271;28;20448;-40
2021/04/22 12:33:19;;;;;;;8.43;3.03;;;;;;;;;;5094871;28;20172;-40
2021/04/22 12:35:47;;;;;;;7.57;2.80;;;;;;;;;;5095631;28;20176;-40
2021/04/22 12:38:22;;;;;;;7.13;2.83;;;;;;;;;;5100048;28;20177;-40
2021/04/22 12:41:05;;;;;;;8.45;2.70;;;;;;;;;;5114647;28;20204;-40
2021/04/22 12:43:33;;;;;;;8.55;2.60;;;;;;;;;;5114265;28;20183;-40
2021/04/22 12:46:10;;;;;;;13.88;3.15;;;;;;;;;;5114953;28;20177;-40
2021/04/22 12:48:36;;;;;;;9.07;2.75;;;;;;;;;;5114454;28;20173;-40
2021/04/22 12:51:03;;;;;;;12.60;2.53;;;;;;;;;;5114632;28;20213;-40
2021/04/22 12:53:30;;;;;;;8.07;2.28;;;;;;;;;;5104203;28;20189;-40
2021/04/22 12:55:57;;;;;;;5.90;2.45;;;;;;;;;;5094383;28;20166;-40
2021/04/22 12:58:28;;;;;;;7.47;2.50;;;;;;;;;;5097557;28;20185;-40
2021/04/22 13:00:55;;;;;;;9.15;2.35;;;;;;;;;;5112583;28;20197;-40
2021/04/22 13:03:25;;;;;;;8.35;2.13;;;;;;;;;;5114689;28;20165;-40
2021/04/22 13:05:53;;;;;;;8.13;2.65;;;;;;;;;;5114468;28;20260;-40
2021/04/22 13:08:20;;;;;;;7.05;2.20;;;;;;;;;;5117787;28;20169;-40
2021/04/22 13:10:47;;;;;;;7.25;2.03;;;;;;;;;;5116641;28;20274;-40
2021/04/22 13:13:13;;;;;;;7.07;2.30;;;;;;;;;;5105949;28;20508;-40
2021/04/22 13:15:40;;;;;;;3.50;1.73;;;;;;;;;;5098296;28;20579;-40
2021/04/22 13:18:14;;;;;;;9.00;2.20;;;;;;;;;;5098552;28;20482;-40
2021/04/22 13:20:51;;;;;;;4.25;1.80;;;;;;;;;;5116717;28;20322;-40
2021/04/22 13:23:28;;;;;;;5.50;2.17;;;;;;;;;;5118526;28;20204;-40
2021/04/22 13:25:54;;;;;;;4.45;2.00;;;;;;;;;;5106656;28;20192;-40
2021/04/22 13:28:20;;;;;;;11.95;2.20;;;;;;;;;;5098352;28;20197;-40
2021/04/22 13:30:47;;;;;;;8.23;2.28;;;;;;;;;;5106802;28;20181;-40
2021/04/22 13:33:15;;;;;;;8.85;2.60;;;;;;;;;;5117559;28;20177;-40
2021/04/22 13:35:41;;;;;;;5.32;1.90;;;;;;;;;;5118344;28;20165;-40
2021/04/22 13:38:23;;;;;;;6.63;2.20;;;;;;;;;;5117719;28;20256;-40
2021/04/22 13:40:49;;;;;;;4.63;2.10;;;;;;;;;;5117511;28;20212;-41
2021/04/22 13:43:17;;;;;;;7.50;1.90;;;;;;;;;;5109097;28;20178;-40
2021/04/22 13:45:43;;;;;;;9.35;1.98;;;;;;;;;;5112279;28;20173;-40
2021/04/22 13:48:09;;;;;;;9.27;2.17;;;;;;;;;;5117466;28;20576;-40
2021/04/22 13:50:35;;;;;;;8.57;1.98;;;;;;;;;;5117469;28;20184;-40
2021/04/22 13:53:11;;;;;;;7.28;1.90;;;;;;;;;;5117683;28;20165;-40
2021/04/22 13:55:48;;;;;;;6.28;2.13;;;;;;;;;;5117356;28;20198;-40
2021/04/22 13:58:14;;;;;;;7.35;2.20;;;;;;;;;;5117238;28;20587;-40
2021/04/22 14:00:40;;;;;;;5.55;1.90;;;;;;;;;;5115289;28;20255;-40
2021/04/22 14:03:10;;;;;;;5.97;1.60;;;;;;;;;;5117393;28;20309;-40
2021/04/22 14:05:39;;;;;;;3.22;1.90;;;;;;;;;;5117358;28;20165;-40
2021/04/22 14:08:05;;;;;;;6.40;1.92;;;;;;;;;;5117030;28;20196;-40
2021/04/22 14:10:36;;;;;;;5.13;1.85;;;;;;;;;;5116575;28;20202;-40
2021/04/22 14:13:13;;;;;;;3.28;1.38;;;;;;;;;;5096939;28;20188;-40
2021/04/22 14:15:39;;;;;;;5.20;1.73;;;;;;;;;;5105020;28;20172;-40
2021/04/22 14:18:07;;;;;;;4.50;1.70;;;;;;;;;;5116957;28;20192;-40
2021/04/22 14:20:33;;;;;;;5.85;1.50;;;;;;;;;;5116493;28;20196;-40
2021/04/22 14:22:59;;;;;;;3.67;1.60;;;;;;;;;;5117334;28;20196;-40
2021/04/22 14:25:25;;;;;;;3.58;1.83;;;;;;;;;;5116448;28;20185;-40
2021/04/22 14:27:51;;;;;;;4.13;1.63;;;;;;;;;;5117100;28;20176;-40
2021/04/22 14:30:17;;;;;;;3.80;1.50;;;;;;;;;;5116861;28;20189;-40
2021/04/22 14:32:43;;;;;;;3.10;1.60;;;;;;;;;;5108798;28;20205;-40
2021/04/22 14:35:09;;;;;;;4.07;1.60;;;;;;;;;;5104158;28;20250;-40
2021/04/22 14:37:35;;;;;;;3.58;1.60;;;;;;;;;;5116714;28;20197;-40
2021/04/22 14:40:01;;;;;;;4.82;1.63;;;;;;;;;;5116016;28;20209;-40
2021/04/22 14:42:27;;;;;;;2.63;1.50;;;;;;;;;;5116346;28;20194;-40
2021/04/22 14:44:58;;;;;;;4.88;1.90;;;;;;;;;;5112315;28;20181;-40